Thursday, January 17, 2019, 5:58 AM EST
Back to Local

KMQE, Milton Blue Hill Observ

Location: Milton, MA, United States Lat: 42.217
Local Time: 5:58 AM EST (10:58 GMT) Lon: -71.117
Time Zone: US/Eastern Elev: 629 ft

Show me the last for .
Show Coded

Time T Td Feel RH Dir Speed Gust Alt SLP Vis Weather Sky Remarks
2019-01-17 04:56 18 2 1 48 320° 8 21 30.24 30.30 0 None
2019-01-17 03:56 20 4 4 49 320° 10 21 30.22 30.27 0 None
2019-01-17 02:56 22 6 6 49 330° 15 23 30.19 30.25 0 None
2019-01-17 01:56 24 10 9 54 310° 9 21 30.16 30.21 0 Peak wind: 31 mph (27 kts) from 310° at 41 min
2019-01-17 00:56 25 15 11 65 300° 13 18 30.12 30.17 0 6-hr Min Temp (1am): 25.0°F
6-hr Max Temp (1am): 33.1°F
2019-01-16 23:56 26 13 12 56 290° 14 21 30.09 30.14 0 24-hr Min Temp (12am): 21.9°F
24-hr Max Temp (12am): 33.1°F
2019-01-16 22:56 28 13 19 52 300° 9 - 30.07 30.12 0 None
2019-01-16 21:56 30 16 17 55 280° 16 23 30.03 30.08 0 None
2019-01-16 20:56 32 17 17 53 280° 22 35 29.99 30.04 0 Peak wind: 34 mph (30 kts) from 270° at 54 min
2019-01-16 19:56 33 19 22 55 250° 10 20 29.98 30.03 0 None
2019-01-16 18:56 33 19 22 55 240° 13 20 29.96 30.02 0 6-hr Min Temp (7pm): 30.9°F
6-hr Max Temp (7pm): 33.1°F
2019-01-16 17:56 33 19 20 55 250° 16 24 29.94 29.99 0 None
2019-01-16 16:56 31 20 17 63 270° 15 25 29.91 29.97 0 None
2019-01-16 15:56 33 21 21 60 260° 15 23 29.90 29.96 0 None
2019-01-16 14:56 33 21 19 60 270° 14 29 29.90 29.95 0 Peak wind: 31 mph (27 kts) from 270° at 24 min
2019-01-16 13:56 33 21 20 60 270° 15 26 29.89 29.94 0 None
2019-01-16 12:56 33 21 20 60 270° 18 28 29.88 29.93 0 6-hr Min Temp (1pm): 23.0°F
6-hr Max Temp (1pm): 33.1°F
2019-01-16 11:56 32 21 19 63 260° 15 25 29.90 29.96 0 None
2019-01-16 10:56 31 21 17 66 260° 14 24 29.93 29.99 0 None
2019-01-16 09:56 30 21 17 68 240° 15 23 29.94 29.99 0 None
2019-01-16 08:56 28 21 13 74 220° 20 26 29.94 29.99 0 None
2019-01-16 07:56 24 19 12 80 200° 13 - 29.95 30.01 0 None
2019-01-16 06:56 24 18 11 77 220° 16 - 29.96 30.01 0 6-hr Min Temp (7am): 21.9°F
6-hr Max Temp (7am): 25.0°F

Support USWX by starting your Amazon purchase here.